Time;durP1;ratioP1;P1;durP2;ratioP2;P2;SDS_P1;SDS_P2;PMS_P1;PMS_P2;Temp;Humidity;BMP_temperature;BMP_pressure;BME280_temperature;BME280_humidity;BME280_pressure;Samples;Min_cycle;Max_cycle;Signal;HPM_P1;HPM_P2
2023/09/23 00:06:53;;;;;;;;;;;;;;;17.73;100.00;98599.81;5357606;23;19981;-83
2023/09/23 00:09:21;;;;;;;;;;;;;;;17.74;100.00;98598.75;4963630;28;19993;-83
2023/09/23 00:11:46;;;;;;;;;;;;;;;17.81;100.00;98596.88;4957052;29;19923;-82
2023/09/23 00:14:12;;;;;;;;;;;;;;;17.87;100.00;98604.84;4955606;29;19922;-83
2023/09/23 00:16:37;;;;;;;;;;;;;;;17.92;100.00;98612.22;4963082;28;19918;-82
2023/09/23 00:19:03;;;;;;;;;;;;;;;17.93;100.00;98613.84;4956471;28;19946;-83
2023/09/23 00:28:11;;;;;;;;;;;;;;;18.02;100.00;98624.06;5205637;23;19927;-84
2023/09/23 00:30:39;;;;;;;;;;;;;;;18.05;100.00;98632.69;4941784;29;19930;-84
2023/09/23 00:33:16;;;;;;;;;;;;;;;18.02;100.00;98625.94;4942074;29;19929;-84
2023/09/23 00:35:44;;;;;;;;;;;;;;;18.05;100.00;98628.19;4950252;29;20025;-84
2023/09/23 00:38:12;;;;;;;;;;;;;;;18.00;100.00;98625.31;4935993;29;19923;-82
2023/09/23 00:40:38;;;;;;;;;;;;;;;18.01;100.00;98637.66;4942075;29;19934;-83
2023/09/23 00:43:08;;;;;;;;;;;;;;;18.05;100.00;98638.84;4955998;29;20011;-84
2023/09/23 01:09:29;;;;;;;;;;;;;;;17.46;100.00;98676.38;4933581;29;19927;-81
2023/09/23 01:43:12;;;;;;;;;;;;;;;17.01;100.00;98694.03;5577681;23;19990;-83
2023/09/23 01:45:38;;;;;;;;;;;;;;;16.93;100.00;98697.72;4936584;29;19926;-82
2023/09/23 01:48:04;;;;;;;;;;;;;;;16.96;100.00;98707.16;4958035;29;19924;-84
2023/09/23 01:53:58;;;;;;;;;;;;;;;16.99;100.00;98706.75;4924357;29;19934;-82
2023/09/23 01:56:23;;;;;;;;;;;;;;;16.95;100.00;98714.34;4924634;29;19978;-81
2023/09/23 01:58:49;;;;;;;;;;;;;;;16.72;100.00;98716.56;4920428;29;19961;-86
2023/09/23 02:01:14;;;;;;;;;;;;;;;16.48;100.00;98709.94;4922214;29;19923;-85
2023/09/23 02:03:41;;;;;;;;;;;;;;;16.48;100.00;98715.25;4926016;29;19931;-84
2023/09/23 02:06:07;;;;;;;;;;;;;;;16.47;100.00;98723.44;4998727;23;20627;-83
2023/09/23 02:42:05;;;;;;;;;;;;;;;16.89;100.00;98760.47;5304144;23;19927;-85
2023/09/23 02:45:05;;;;;;;;;;;;;;;16.97;100.00;98767.41;4925064;29;19927;-85
2023/09/23 02:47:41;;;;;;;;;;;;;;;16.98;100.00;98769.06;4867321;29;20505;-85
2023/09/23 02:50:32;;;;;;;;;;;;;;;17.00;100.00;98772.34;4854086;29;20439;-85
2023/09/23 02:52:59;;;;;;;;;;;;;;;16.96;100.00;98776.47;4932920;29;19924;-85
2023/09/23 02:55:24;;;;;;;;;;;;;;;16.94;100.00;98786.50;4900467;29;19930;-84
2023/09/23 02:57:56;;;;;;;;;;;;;;;16.95;100.00;98790.81;4902821;29;19923;-85
2023/09/23 03:00:29;;;;;;;;;;;;;;;17.04;100.00;98794.91;4933454;29;19927;-84
2023/09/23 03:17:50;;;;;;;;;;;;;;;17.04;100.00;98810.91;5082616;23;2218354;-85
2023/09/23 03:54:30;;;;;;;;;;;;;;;17.11;100.00;98854.38;5488929;23;19989;-86
2023/09/23 04:04:10;;;;;;;;;;;;;;;17.13;100.00;98868.34;5064003;23;19984;-85
2023/09/23 04:31:46;;;;;;;;;;;;;;;17.18;100.00;98865.91;5448571;23;19992;-85
2023/09/23 04:45:29;;;;;;;;;;;;;;;17.18;100.00;98871.22;4914273;29;19934;-86
2023/09/23 04:48:01;;;;;;;;;;;;;;;17.22;100.00;98876.97;4918937;29;19957;-88
2023/09/23 05:16:28;;;;;;;;;;;;;;;17.29;100.00;98937.31;4917516;23;20362;-87
2023/09/23 05:26:07;;;;;;;;;;;;;;;17.37;100.00;98933.63;4864814;23;19955;-77
2023/09/23 05:28:33;;;;;;;;;;;;;;;17.35;100.00;98941.00;4872257;29;19958;-77
2023/09/23 05:30:59;;;;;;;;;;;;;;;17.38;100.00;98935.25;4870995;29;19927;-77
2023/09/23 05:33:24;;;;;;;;;;;;;;;17.38;100.00;98945.94;4867392;29;19928;-78
2023/09/23 05:35:51;;;;;;;;;;;;;;;17.36;100.00;98948.81;4872485;29;19924;-78
2023/09/23 05:38:17;;;;;;;;;;;;;;;17.39;100.00;98963.56;4871577;29;20370;-78
2023/09/23 05:40:42;;;;;;;;;;;;;;;17.33;100.00;98975.03;4872756;29;20011;-77
2023/09/23 05:43:10;;;;;;;;;;;;;;;17.33;100.00;98975.88;4872509;29;19924;-77
2023/09/23 05:45:37;;;;;;;;;;;;;;;17.35;100.00;98989.00;4875438;29;19935;-77
2023/09/23 05:48:04;;;;;;;;;;;;;;;17.37;100.00;98992.31;4870296;29;20258;-76
2023/09/23 05:50:30;;;;;;;;;;;;;;;17.36;100.00;98996.81;4871696;29;19932;-77
2023/09/23 05:52:56;;;;;;;;;;;;;;;17.32;100.00;98987.56;4878437;29;20021;-78
2023/09/23 05:55:21;;;;;;;;;;;;;;;17.34;100.00;98988.19;4875191;29;19924;-77
2023/09/23 05:57:49;;;;;;;;;;;;;;;17.33;100.00;98994.53;4875017;29;19924;-78
2023/09/23 06:00:17;;;;;;;;;;;;;;;17.22;100.00;99005.78;4874299;29;19935;-77
2023/09/23 06:02:47;;;;;;;;;;;;;;;17.16;100.00;98996.72;4875672;29;19938;-75
2023/09/23 06:05:13;;;;;;;;;;;;;;;17.02;100.00;99012.88;4871959;29;20456;-77
2023/09/23 06:07:40;;;;;;;;;;;;;;;16.87;100.00;99017.47;4871566;29;19927;-79
2023/09/23 06:10:06;;;;;;;;;;;;;;;16.70;100.00;99023.13;4872909;29;19924;-78
2023/09/23 06:12:32;;;;;;;;;;;;;;;16.54;100.00;99033.22;4863320;29;19935;-77
2023/09/23 06:14:58;;;;;;;;;;;;;;;16.49;100.00;99047.13;4871358;29;19980;-76
2023/09/23 06:17:24;;;;;;;;;;;;;;;16.34;100.00;99033.88;4873963;29;19923;-78
2023/09/23 06:19:49;;;;;;;;;;;;;;;16.30;100.00;99040.63;4872152;29;19931;-78
2023/09/23 06:22:14;;;;;;;;;;;;;;;16.24;100.00;99059.19;4869299;29;19924;-79
2023/09/23 06:24:40;;;;;;;;;;;;;;;16.22;100.00;99066.53;4872000;29;19982;-76
2023/09/23 06:27:05;;;;;;;;;;;;;;;16.24;100.00;99064.50;4875871;29;19924;-79
2023/09/23 06:29:31;;;;;;;;;;;;;;;16.12;100.00;99076.69;4870854;29;20434;-78
2023/09/23 06:31:56;;;;;;;;;;;;;;;16.15;100.00;99086.94;4870066;29;20353;-78
2023/09/23 06:34:22;;;;;;;;;;;;;;;16.16;100.00;99091.25;4873850;29;19931;-78
2023/09/23 06:36:47;;;;;;;;;;;;;;;16.10;100.00;99100.00;4871043;29;19934;-77
2023/09/23 06:39:12;;;;;;;;;;;;;;;16.06;100.00;99088.09;4874762;29;19924;-76
2023/09/23 06:41:38;;;;;;;;;;;;;;;15.93;100.00;99102.88;4869935;29;20399;-78
2023/09/23 06:44:04;;;;;;;;;;;;;;;15.86;100.00;99099.31;4854972;29;20296;-79
2023/09/23 06:46:30;;;;;;;;;;;;;;;15.80;100.00;99094.75;4870841;29;19924;-77
2023/09/23 06:48:55;;;;;;;;;;;;;;;15.78;100.00;99102.13;4871013;29;19924;-78
2023/09/23 06:51:21;;;;;;;;;;;;;;;15.78;100.00;99096.78;4872717;29;19946;-79
2023/09/23 06:53:47;;;;;;;;;;;;;;;15.72;100.00;99102.88;4871823;29;20309;-78
2023/09/23 06:56:12;;;;;;;;;;;;;;;15.73;100.00;99114.31;4872374;29;19924;-77
2023/09/23 06:58:37;;;;;;;;;;;;;;;15.80;100.00;99129.34;4872336;29;20456;-77
2023/09/23 07:01:03;;;;;;;;;;;;;;;15.84;100.00;99127.97;4879565;29;20027;-77
2023/09/23 07:03:28;;;;;;;;;;;;;;;15.83;100.00;99131.66;4870933;29;20288;-81
2023/09/23 07:05:54;;;;;;;;;;;;;;;15.79;100.00;99143.66;4876146;29;20381;-79
2023/09/23 07:08:19;;;;;;;;;;;;;;;15.82;100.00;99142.47;4875109;29;19924;-80
2023/09/23 07:10:45;;;;;;;;;;;;;;;15.61;100.00;99153.03;4872738;29;20381;-79
2023/09/23 07:13:10;;;;;;;;;;;;;;;15.36;100.00;99149.81;4855670;29;20437;-78
2023/09/23 07:15:37;;;;;;;;;;;;;;;15.24;100.00;99156.56;4875039;29;19934;-81
2023/09/23 07:18:03;;;;;;;;;;;;;;;15.21;100.00;99170.22;4869944;29;19971;-81
2023/09/23 07:20:28;;;;;;;;;;;;;;;15.13;100.00;99174.63;4867881;29;19924;-81
2023/09/23 07:22:54;;;;;;;;;;;;;;;15.17;100.00;99183.06;4870313;29;19935;-81
2023/09/23 07:25:19;;;;;;;;;;;;;;;15.22;100.00;99195.78;4876375;29;20342;-79
2023/09/23 07:27:46;;;;;;;;;;;;;;;15.29;100.00;99196.72;4870828;29;19946;-78
2023/09/23 07:30:12;;;;;;;;;;;;;;;15.22;100.00;99201.09;4870322;29;20271;-78
2023/09/23 07:32:37;;;;;;;;;;;;;;;15.07;100.00;99209.06;4870873;29;20014;-78
2023/09/23 07:35:03;;;;;;;;;;;;;;;15.00;100.00;99224.06;4874676;29;19928;-79
2023/09/23 07:37:29;;;;;;;;;;;;;;;14.87;100.00;99224.66;4881941;29;19926;-79
2023/09/23 07:39:55;;;;;;;;;;;;;;;14.78;100.00;99220.44;4880183;29;19924;-80
2023/09/23 07:42:20;;;;;;;;;;;;;;;14.71;100.00;99219.47;4872666;29;20274;-80
2023/09/23 07:44:46;;;;;;;;;;;;;;;14.69;100.00;99221.47;4854228;29;19976;-80
2023/09/23 07:47:11;;;;;;;;;;;;;;;14.71;100.00;99220.31;4873758;29;20337;-80
2023/09/23 07:49:37;;;;;;;;;;;;;;;14.69;100.00;99224.13;4869519;29;19928;-79
2023/09/23 07:52:03;;;;;;;;;;;;;;;14.64;100.00;99222.03;4872435;29;19978;-81
2023/09/23 07:54:28;;;;;;;;;;;;;;;14.56;100.00;99216.75;4870819;29;19963;-79
2023/09/23 07:56:54;;;;;;;;;;;;;;;14.52;100.00;99219.94;4871674;29;19927;-78
2023/09/23 07:59:19;;;;;;;;;;;;;;;14.50;100.00;99213.97;4869704;29;19971;-78
2023/09/23 08:01:45;;;;;;;;;;;;;;;14.52;100.00;99220.78;4873109;29;20583;-78
2023/09/23 08:04:10;;;;;;;;;;;;;;;14.55;100.00;99230.22;4874069;29;19924;-78
2023/09/23 08:06:36;;;;;;;;;;;;;;;14.52;100.00;99236.69;4870660;29;20298;-79
2023/09/23 08:09:01;;;;;;;;;;;;;;;14.57;100.00;99244.13;4871100;29;19952;-78
2023/09/23 08:11:27;;;;;;;;;;;;;;;14.57;100.00;99236.16;4872589;29;19927;-78
2023/09/23 08:13:53;;;;;;;;;;;;;;;14.48;100.00;99235.41;4869476;29;20412;-76
2023/09/23 08:16:18;;;;;;;;;;;;;;;14.46;100.00;99225.94;4872568;29;20385;-78
2023/09/23 08:18:44;;;;;;;;;;;;;;;14.49;100.00;99231.72;4869133;29;20002;-79
2023/09/23 08:21:10;;;;;;;;;;;;;;;14.58;100.00;99240.47;4873449;29;20069;-79
2023/09/23 08:23:36;;;;;;;;;;;;;;;14.71;100.00;99246.03;4868615;29;19920;-79
2023/09/23 08:26:01;;;;;;;;;;;;;;;14.85;100.00;99258.53;4867844;29;19931;-85
2023/09/23 08:28:26;;;;;;;;;;;;;;;14.90;100.00;99260.69;4870564;29;19935;-79
2023/09/23 08:30:52;;;;;;;;;;;;;;;14.91;100.00;99279.09;4871367;29;19930;-79
2023/09/23 08:33:17;;;;;;;;;;;;;;;14.98;100.00;99284.53;4869454;29;20397;-79
2023/09/23 08:35:47;;;;;;;;;;;;;;;15.04;100.00;99300.59;4871140;29;19949;-80
2023/09/23 08:38:13;;;;;;;;;;;;;;;15.14;100.00;99309.13;4872866;29;19931;-82
2023/09/23 08:40:39;;;;;;;;;;;;;;;15.25;100.00;99323.03;4869204;29;19927;-77
2023/09/23 08:43:05;;;;;;;;;;;;;;;15.34;100.00;99338.72;4872289;29;20376;-78
2023/09/23 08:45:31;;;;;;;;;;;;;;;15.40;100.00;99350.50;4868684;29;19930;-81
2023/09/23 08:48:00;;;;;;;;;;;;;;;15.38;100.00;99353.31;4872040;29;19924;-78
2023/09/23 08:50:26;;;;;;;;;;;;;;;15.45;100.00;99364.06;4870179;29;20357;-78
2023/09/23 08:52:52;;;;;;;;;;;;;;;15.46;100.00;99374.53;4868095;29;19984;-81
2023/09/23 08:55:18;;;;;;;;;;;;;;;15.29;100.00;99372.19;4871232;29;19939;-85
2023/09/23 08:57:44;;;;;;;;;;;;;;;15.31;100.00;99383.47;4870738;29;19991;-84
2023/09/23 09:00:10;;;;;;;;;;;;;;;15.21;100.00;99390.81;4868915;29;19982;-85
2023/09/23 09:02:36;;;;;;;;;;;;;;;15.13;100.00;99395.22;4872751;29;20700;-84
2023/09/23 09:05:01;;;;;;;;;;;;;;;15.06;100.00;99394.25;4873715;29;20030;-81
2023/09/23 09:07:33;;;;;;;;;;;;;;;15.04;100.00;99398.91;4879093;29;20293;-82
2023/09/23 09:09:58;;;;;;;;;;;;;;;15.14;100.00;99396.84;4876543;29;19924;-79
2023/09/23 09:12:23;;;;;;;;;;;;;;;15.16;100.00;99384.22;4875052;29;19924;-80
2023/09/23 09:14:52;;;;;;;;;;;;;;;15.12;100.00;99380.28;4874718;29;20366;-84
2023/09/23 09:17:18;;;;;;;;;;;;;;;15.20;100.00;99376.72;4876396;29;19935;-82
2023/09/23 09:19:43;;;;;;;;;;;;;;;15.21;100.00;99359.75;4873628;29;19927;-83
2023/09/23 09:22:10;;;;;;;;;;;;;;;15.14;100.00;99353.50;4884334;29;19924;-80
2023/09/23 09:24:35;;;;;;;;;;;;;;;14.95;100.00;99338.88;4888249;29;19927;-79
2023/09/23 09:27:01;;;;;;;;;;;;;;;14.95;100.00;99338.88;4876761;29;19975;-82
2023/09/23 09:29:28;;;;;;;;;;;;;;;15.06;100.00;99341.09;4878991;29;19927;-81
2023/09/23 09:31:58;;;;;;;;;;;;;;;15.03;100.00;99341.44;4877557;29;19971;-82
2023/09/23 09:34:24;;;;;;;;;;;;;;;15.15;100.00;99334.72;4878723;29;19931;-80
2023/09/23 09:36:54;;;;;;;;;;;;;;;15.23;100.00;99333.84;4872988;29;19924;-79
2023/09/23 09:39:22;;;;;;;;;;;;;;;15.28;100.00;99325.31;4874217;29;19942;-79
2023/09/23 09:41:51;;;;;;;;;;;;;;;15.40;100.00;99327.38;4872497;29;19928;-81
2023/09/23 09:44:16;;;;;;;;;;;;;;;15.44;100.00;99327.84;4856337;29;19924;-78
2023/09/23 09:46:43;;;;;;;;;;;;;;;15.50;100.00;99333.28;4875475;29;19932;-80
2023/09/23 09:49:09;;;;;;;;;;;;;;;15.52;100.00;99339.28;4873040;29;19931;-80
2023/09/23 09:51:35;;;;;;;;;;;;;;;15.50;100.00;99340.41;4871841;29;19954;-81
2023/09/23 09:54:02;;;;;;;;;;;;;;;15.45;100.00;99345.44;4879508;29;19930;-82
2023/09/23 09:56:29;;;;;;;;;;;;;;;15.55;100.00;99346.09;4880726;29;19924;-82
2023/09/23 09:58:55;;;;;;;;;;;;;;;15.68;100.00;99346.28;4875013;29;19928;-83
2023/09/23 10:01:20;;;;;;;;;;;;;;;15.73;100.00;99338.59;4878350;29;19968;-80
2023/09/23 10:03:49;;;;;;;;;;;;;;;15.81;100.00;99343.84;4884621;29;19928;-82
2023/09/23 10:06:22;;;;;;;;;;;;;;;15.79;100.00;99343.19;4875269;29;19924;-79
2023/09/23 10:08:52;;;;;;;;;;;;;;;15.81;100.00;99341.16;4872574;29;20450;-78
2023/09/23 10:11:28;;;;;;;;;;;;;;;15.82;100.00;99331.34;4874273;29;20292;-79
2023/09/23 10:13:54;;;;;;;;;;;;;;;15.84;100.00;99335.50;4875388;29;19923;-81
2023/09/23 10:16:27;;;;;;;;;;;;;;;15.93;100.00;99337.06;4875514;29;20027;-80
2023/09/23 10:18:56;;;;;;;;;;;;;;;15.87;100.00;99340.44;4877154;29;20396;-80
2023/09/23 10:21:23;;;;;;;;;;;;;;;15.79;100.00;99332.53;4876811;29;20349;-79
2023/09/23 10:23:50;;;;;;;;;;;;;;;15.80;100.00;99328.88;4873113;29;20432;-80
2023/09/23 10:26:19;;;;;;;;;;;;;;;15.92;100.00;99331.91;4878319;29;20273;-79
2023/09/23 10:28:59;;;;;;;;;;;;;;;16.07;100.00;99337.25;4858458;29;19951;-81
2023/09/23 10:31:29;;;;;;;;;;;;;;;16.14;100.00;99330.19;4869903;29;19924;-80
2023/09/23 10:33:55;;;;;;;;;;;;;;;16.19;100.00;99333.13;4870305;29;19934;-80
2023/09/23 10:36:21;;;;;;;;;;;;;;;16.29;100.00;99352.31;4876272;29;19920;-79
2023/09/23 10:38:46;;;;;;;;;;;;;;;16.38;100.00;99349.34;4868821;29;20347;-81
2023/09/23 10:41:12;;;;;;;;;;;;;;;16.47;100.00;99358.09;4870994;29;19923;-81
2023/09/23 10:43:37;;;;;;;;;;;;;;;16.65;100.00;99371.88;4851161;29;20461;-81
2023/09/23 10:46:03;;;;;;;;;;;;;;;16.81;100.00;99375.34;4868310;29;19924;-81
2023/09/23 10:48:29;;;;;;;;;;;;;;;16.96;100.00;99373.47;4869810;29;19920;-81
2023/09/23 10:50:54;;;;;;;;;;;;;;;17.05;100.00;99369.66;4874787;29;19928;-81
2023/09/23 10:53:23;;;;;;;;;;;;;;;17.21;100.00;99377.41;4871191;29;20060;-81
2023/09/23 10:55:49;;;;;;;;;;;;;;;17.34;100.00;99382.91;4872133;29;19923;-81
2023/09/23 10:58:15;;;;;;;;;;;;;;;17.46;100.00;99388.53;4877206;29;19924;-80
2023/09/23 11:00:41;;;;;;;;;;;;;;;17.52;100.00;99393.13;4874660;29;19931;-82
2023/09/23 11:03:10;;;;;;;;;;;;;;;17.45;100.00;99387.72;4872081;29;20143;-81
2023/09/23 11:05:37;;;;;;;;;;;;;;;17.53;100.00;99390.28;4870566;29;19923;-80
2023/09/23 11:08:04;;;;;;;;;;;;;;;17.57;100.00;99393.38;4877754;29;19924;-81
2023/09/23 11:10:29;;;;;;;;;;;;;;;17.62;100.00;99395.50;4877876;29;20010;-81
2023/09/23 11:12:55;;;;;;;;;;;;;;;17.74;100.00;99393.94;4877677;29;20052;-80
2023/09/23 11:15:21;;;;;;;;;;;;;;;17.90;100.00;99399.03;4870215;29;19924;-80
2023/09/23 11:17:46;;;;;;;;;;;;;;;18.06;100.00;99396.06;4870267;29;19924;-80
2023/09/23 11:20:12;;;;;;;;;;;;;;;18.16;100.00;99401.88;4871180;29;20035;-80
2023/09/23 11:22:37;;;;;;;;;;;;;;;18.09;100.00;99401.00;4875953;29;20464;-80
2023/09/23 11:25:09;;;;;;;;;;;;;;;18.15;100.00;99402.91;4873818;29;20004;-79
2023/09/23 11:27:35;;;;;;;;;;;;;;;18.18;100.00;99410.53;4850905;29;20267;-80
2023/09/23 11:30:01;;;;;;;;;;;;;;;18.17;100.00;99406.22;4869946;29;19938;-80
2023/09/23 11:32:27;;;;;;;;;;;;;;;18.17;100.00;99400.03;4868408;29;19931;-82
2023/09/23 11:34:53;;;;;;;;;;;;;;;18.31;100.00;99399.94;4877486;29;19924;-81
2023/09/23 11:37:25;;;;;;;;;;;;;;;18.35;100.00;99403.03;4857028;29;20304;-80
2023/09/23 11:39:50;;;;;;;;;;;;;;;18.52;100.00;99398.19;4876541;29;19924;-79
2023/09/23 11:42:16;;;;;;;;;;;;;;;18.64;100.00;99389.47;4859740;29;20334;-78
2023/09/23 11:44:41;;;;;;;;;;;;;;;18.75;100.00;99388.88;4873814;29;20377;-78
2023/09/23 11:47:06;;;;;;;;;;;;;;;18.64;100.00;99380.63;4863615;29;20501;-79
2023/09/23 11:49:32;;;;;;;;;;;;;;;18.53;100.00;99383.81;4872492;29;20010;-78
2023/09/23 11:51:57;;;;;;;;;;;;;;;18.48;100.00;99375.56;4873849;29;19932;-79
2023/09/23 11:54:23;;;;;;;;;;;;;;;18.46;100.00;99374.94;4877292;29;19930;-79
2023/09/23 11:56:48;;;;;;;;;;;;;;;18.48;100.00;99365.72;4860320;29;19927;-79
2023/09/23 11:59:14;;;;;;;;;;;;;;;18.44;100.00;99369.78;4877019;29;19939;-78
2023/09/23 12:01:40;;;;;;;;;;;;;;;18.37;100.00;99369.78;4866335;29;19928;-78
2023/09/23 12:04:06;;;;;;;;;;;;;;;18.33;100.00;99367.66;4853118;29;19920;-78
2023/09/23 12:06:36;;;;;;;;;;;;;;;18.31;100.00;99381.25;4867474;29;20397;-79
2023/09/23 12:09:02;;;;;;;;;;;;;;;18.38;100.00;99376.75;4869151;29;19920;-78
2023/09/23 12:11:28;;;;;;;;;;;;;;;18.52;100.00;99372.31;4867272;29;19931;-78
2023/09/23 12:13:53;;;;;;;;;;;;;;;18.74;100.00;99370.38;4868074;29;19928;-80
2023/09/23 12:16:19;;;;;;;;;;;;;;;18.79;100.00;99373.28;4868721;29;19919;-79
2023/09/23 12:18:46;;;;;;;;;;;;;;;18.81;100.00;99372.06;4866625;29;20022;-80
2023/09/23 12:21:12;;;;;;;;;;;;;;;18.98;100.00;99374.38;4869960;29;19919;-79
2023/09/23 12:23:37;;;;;;;;;;;;;;;19.11;100.00;99361.88;4868251;29;19932;-79
2023/09/23 12:26:03;;;;;;;;;;;;;;;19.28;100.00;99367.66;4869774;29;20004;-79
2023/09/23 12:28:29;;;;;;;;;;;;;;;19.28;100.00;99361.47;4871338;29;19930;-78
2023/09/23 12:30:54;;;;;;;;;;;;;;;19.34;100.00;99371.38;4867559;29;19932;-79
2023/09/23 12:33:20;;;;;;;;;;;;;;;19.25;100.00;99361.91;4851586;29;19971;-79
2023/09/23 12:35:46;;;;;;;;;;;;;;;19.22;100.00;99361.28;4866611;29;19931;-79
2023/09/23 12:38:12;;;;;;;;;;;;;;;19.32;100.00;99357.38;4869701;29;19935;-79
2023/09/23 12:40:37;;;;;;;;;;;;;;;19.56;100.00;99356.81;4869633;29;19928;-79
2023/09/23 12:43:03;;;;;;;;;;;;;;;19.76;100.00;99360.31;4868482;29;19982;-80
2023/09/23 12:45:28;;;;;;;;;;;;;;;19.89;100.00;99354.97;4867156;29;19931;-79
2023/09/23 12:47:54;;;;;;;;;;;;;;;19.95;100.00;99355.97;4867567;29;19936;-79
2023/09/23 12:50:19;;;;;;;;;;;;;;;20.09;100.00;99354.91;4868849;29;19952;-76
2023/09/23 12:52:44;;;;;;;;;;;;;;;19.87;100.00;99362.38;4869111;29;19924;-78
2023/09/23 12:55:10;;;;;;;;;;;;;;;19.87;100.00;99362.38;4869614;29;20015;-78
2023/09/23 12:57:35;;;;;;;;;;;;;;;19.88;100.00;99358.66;4870994;29;19924;-79
2023/09/23 13:00:02;;;;;;;;;;;;;;;20.06;100.00;99359.88;4869712;29;20289;-81
2023/09/23 13:02:28;;;;;;;;;;;;;;;20.24;100.00;99362.75;4876261;29;19924;-80
2023/09/23 13:04:54;;;;;;;;;;;;;;;20.53;100.00;99356.91;4876825;29;20301;-80
2023/09/23 13:07:19;;;;;;;;;;;;;;;20.89;100.00;99361.72;4876478;29;20014;-78
2023/09/23 13:09:45;;;;;;;;;;;;;;;21.20;100.00;99358.28;4873442;29;19924;-79
2023/09/23 13:12:10;;;;;;;;;;;;;;;21.40;100.00;99369.69;4872085;29;19924;-78
2023/09/23 13:14:36;;;;;;;;;;;;;;;21.67;100.00;99364.16;4870717;29;20399;-78
2023/09/23 13:17:01;;;;;;;;;;;;;;;21.65;100.00;99367.88;4868445;29;20433;-77
2023/09/23 13:19:26;;;;;;;;;;;;;;;21.75;100.00;99375.41;4870985;29;19932;-78
2023/09/23 13:21:52;;;;;;;;;;;;;;;21.93;100.00;99375.47;4870343;29;20007;-77
2023/09/23 13:24:17;;;;;;;;;;;;;;;22.13;100.00;99367.28;4872908;29;20290;-76
2023/09/23 13:26:43;;;;;;;;;;;;;;;22.34;100.00;99363.31;4875710;29;19931;-77
2023/09/23 13:29:09;;;;;;;;;;;;;;;22.35;100.00;99359.59;4872004;29;20403;-80
2023/09/23 13:31:34;;;;;;;;;;;;;;;22.31;100.00;99356.53;4866389;29;19928;-80
2023/09/23 13:34:00;;;;;;;;;;;;;;;22.46;100.00;99362.34;4867758;29;19947;-77
2023/09/23 13:36:25;;;;;;;;;;;;;;;22.55;100.00;99362.06;4873519;29;19931;-76
2023/09/23 13:38:51;;;;;;;;;;;;;;;22.63;100.00;99364.44;4854063;29;19924;-82
2023/09/23 13:41:17;;;;;;;;;;;;;;;22.59;100.00;99363.25;4882687;29;19921;-85
2023/09/23 13:43:43;;;;;;;;;;;;;;;22.55;100.00;99362.06;4864433;29;19924;-82
2023/09/23 13:46:08;;;;;;;;;;;;;;;22.69;100.00;99364.38;4877708;29;19923;-82
2023/09/23 13:48:34;;;;;;;;;;;;;;;22.81;100.00;99361.75;4879737;29;19931;-77
2023/09/23 13:50:59;;;;;;;;;;;;;;;22.96;100.00;99364.91;4863500;29;19923;-78
2023/09/23 13:53:24;;;;;;;;;;;;;;;23.11;100.00;99372.56;4879146;29;20441;-78
2023/09/23 13:55:50;;;;;;;;;;;;;;;23.24;100.00;99357.03;4858859;29;19980;-78
2023/09/23 13:58:15;;;;;;;;;;;;;;;23.42;100.00;99361.53;4879326;29;20296;-78
2023/09/23 14:00:41;;;;;;;;;;;;;;;23.58;100.00;99354.69;4878985;29;19931;-77
2023/09/23 14:03:06;;;;;;;;;;;;;;;23.49;100.00;99348.00;4862855;29;19974;-78
2023/09/23 14:05:32;;;;;;;;;;;;;;;23.44;100.00;99353.25;4870360;29;19927;-80
2023/09/23 14:07:57;;;;;;;;;;;;;;;23.34;100.00;99355.66;4880107;29;19932;-78
2023/09/23 14:10:22;;;;;;;;;;;;;;;23.21;100.00;99354.78;4878862;29;19924;-78
2023/09/23 14:12:48;;;;;;;;;;;;;;;23.00;100.00;99355.31;4878688;29;20399;-78
2023/09/23 14:15:14;;;;;;;;;;;;;;;22.76;100.00;99350.88;4879184;29;19924;-78
2023/09/23 14:17:39;;;;;;;;;;;;;;;22.38;100.00;99351.09;4875862;29;19981;-80
2023/09/23 14:20:09;;;;;;;;;;;;;;;22.19;100.00;99342.19;4878009;29;19924;-80
2023/09/23 14:22:34;;;;;;;;;;;;;;;21.92;100.00;99336.22;4878613;29;19927;-80
2023/09/23 14:25:03;;;;;;;;;;;;;;;21.78;100.00;99325.81;4878593;29;19999;-81
2023/09/23 14:27:28;;;;;;;;;;;;;;;21.53;100.00;99321.28;4878344;29;19930;-81
2023/09/23 14:29:53;;;;;;;;;;;;;;;21.26;100.00;99319.84;4879093;29;20309;-80
2023/09/23 14:32:19;;;;;;;;;;;;;;;21.27;100.00;99326.84;4878100;29;20414;-80
2023/09/23 14:34:44;;;;;;;;;;;;;;;21.21;100.00;99339.25;4877434;29;19924;-81
2023/09/23 14:37:10;;;;;;;;;;;;;;;21.18;100.00;99345.06;4879017;29;19926;-82
2023/09/23 14:39:35;;;;;;;;;;;;;;;21.11;100.00;99348.78;4878329;29;19952;-80
2023/09/23 14:42:00;;;;;;;;;;;;;;;21.14;100.00;99353.75;4878673;29;19963;-82
2023/09/23 14:44:26;;;;;;;;;;;;;;;21.16;100.00;99346.31;4878616;29;19924;-81
2023/09/23 14:46:51;;;;;;;;;;;;;;;21.12;100.00;99353.13;4878886;29;19924;-80
2023/09/23 14:49:17;;;;;;;;;;;;;;;21.15;100.00;99355.41;4878864;29;19923;-85
2023/09/23 14:51:42;;;;;;;;;;;;;;;21.18;100.00;99358.50;4877998;29;19939;-83
2023/09/23 14:54:07;;;;;;;;;;;;;;;21.16;100.00;99351.69;4878952;29;19924;-77
2023/09/23 14:56:33;;;;;;;;;;;;;;;21.16;100.00;99351.69;4878292;29;19927;-78
2023/09/23 14:58:58;;;;;;;;;;;;;;;21.18;100.00;99354.97;4862006;29;19930;-77
2023/09/23 15:01:25;;;;;;;;;;;;;;;21.12;100.00;99364.69;4878057;29;19920;-78
2023/09/23 15:03:51;;;;;;;;;;;;;;;21.14;100.00;99364.47;4878357;29;20019;-78
2023/09/23 15:06:16;;;;;;;;;;;;;;;21.10;100.00;99363.25;4861520;29;19947;-78
2023/09/23 15:08:42;;;;;;;;;;;;;;;21.08;100.00;99368.03;4877878;29;20361;-77
2023/09/23 15:11:08;;;;;;;;;;;;;;;21.09;100.00;99362.41;4879998;29;19927;-79
2023/09/23 15:13:33;;;;;;;;;;;;;;;21.11;100.00;99370.25;4872442;29;19971;-79
2023/09/23 15:15:59;;;;;;;;;;;;;;;21.14;100.00;99375.22;4872671;29;19924;-88
2023/09/23 15:18:25;;;;;;;;;;;;;;;21.10;100.00;99374.81;4858434;29;19951;-79
2023/09/23 15:20:50;;;;;;;;;;;;;;;21.11;100.00;99381.00;4861321;29;19934;-77
2023/09/23 15:23:15;;;;;;;;;;;;;;;21.13;100.00;99378.94;4877663;29;20352;-79
2023/09/23 15:25:41;;;;;;;;;;;;;;;21.06;100.00;99388.88;4870193;29;20377;-79
2023/09/23 15:28:07;;;;;;;;;;;;;;;20.99;100.00;99390.75;4873814;29;19930;-80
2023/09/23 15:30:33;;;;;;;;;;;;;;;20.94;100.00;99388.72;4870291;29;20310;-78
2023/09/23 15:32:58;;;;;;;;;;;;;;;20.90;100.00;99387.50;4851933;29;20023;-76
2023/09/23 15:35:24;;;;;;;;;;;;;;;20.84;100.00;99386.50;4883088;29;19949;-79
2023/09/23 15:37:49;;;;;;;;;;;;;;;20.81;100.00;99389.59;4871708;29;19963;-80
2023/09/23 15:40:16;;;;;;;;;;;;;;;20.79;100.00;99399.69;4868321;29;20135;-78
2023/09/23 15:42:42;;;;;;;;;;;;;;;20.76;100.00;99400.13;4869503;29;19928;-77
2023/09/23 15:45:08;;;;;;;;;;;;;;;20.72;100.00;99412.34;4870734;29;19932;-76
2023/09/23 15:47:33;;;;;;;;;;;;;;;20.71;100.00;99402.63;4867337;29;21387;-76
2023/09/23 15:49:58;;;;;;;;;;;;;;;20.65;100.00;99403.47;4871793;29;19931;-76
2023/09/23 15:52:24;;;;;;;;;;;;;;;20.61;100.00;99390.72;4873426;29;20344;-77
2023/09/23 15:54:50;;;;;;;;;;;;;;;20.57;100.00;99390.28;4875596;29;19931;-77
2023/09/23 15:57:15;;;;;;;;;;;;;;;20.54;100.00;99401.44;4874007;29;19971;-77
2023/09/23 15:59:41;;;;;;;;;;;;;;;20.54;100.00;99400.63;4874206;29;19924;-79
2023/09/23 16:02:07;;;;;;;;;;;;;;;20.52;100.00;99408.03;4871645;29;20035;-78
2023/09/23 16:04:33;;;;;;;;;;;;;;;20.50;100.00;99410.94;4867774;29;20080;-78
2023/09/23 16:06:59;;;;;;;;;;;;;;;20.46;100.00;99416.94;4874936;29;19931;-77
2023/09/23 16:09:24;;;;;;;;;;;;;;;20.46;100.00;99415.06;4872723;29;20408;-78
2023/09/23 16:11:49;;;;;;;;;;;;;;;20.46;100.00;99415.06;4868117;29;19931;-78
2023/09/23 16:14:15;;;;;;;;;;;;;;;20.45;100.00;99418.78;4871702;29;19928;-77
2023/09/23 16:16:40;;;;;;;;;;;;;;;20.41;100.00;99415.72;4866910;29;20284;-76
2023/09/23 16:19:06;;;;;;;;;;;;;;;20.38;100.00;99413.44;4873794;29;19975;-75
2023/09/23 16:21:31;;;;;;;;;;;;;;;20.38;100.00;99418.00;4867461;29;19924;-74